createdAt,value
2019-02-16T00:00:23.244Z,83.43
2019-02-16T00:02:51.502Z,65.27
2019-02-16T00:05:19.872Z,66.63
2019-02-16T00:07:48.032Z,62.23
2019-02-16T00:10:16.235Z,63.60
2019-02-16T00:12:44.396Z,56.20
2019-02-16T00:15:12.554Z,56.00
2019-02-16T00:17:40.738Z,52.40
2019-02-16T00:20:08.970Z,52.57
2019-02-16T00:22:37.258Z,52.80
2019-02-16T00:25:05.952Z,52.90
2019-02-16T00:27:34.341Z,52.40
2019-02-16T00:30:02.559Z,52.60
2019-02-16T00:32:31.020Z,55.47
2019-02-16T00:34:59.231Z,54.67
2019-02-16T00:37:27.392Z,55.93
2019-02-16T00:39:55.585Z,54.87
2019-02-16T00:42:23.922Z,53.17
2019-02-16T00:44:52.116Z,53.27
2019-02-16T00:47:20.355Z,48.13
2019-02-16T00:49:48.513Z,46.70
2019-02-16T00:52:17.548Z,45.43
2019-02-16T00:54:45.755Z,42.93
2019-02-16T00:57:14.207Z,47.30
2019-02-16T00:59:42.362Z,50.57
2019-02-16T01:02:10.726Z,46.80
2019-02-16T01:04:39.309Z,46.27
2019-02-16T01:07:07.501Z,48.87
2019-02-16T01:09:35.695Z,50.43
2019-02-16T01:12:04.052Z,50.27
2019-02-16T01:14:32.195Z,48.90
2019-02-16T01:17:00.388Z,51.27
2019-02-16T01:19:28.542Z,49.73
2019-02-16T01:21:56.708Z,49.67
2019-02-16T01:24:24.905Z,48.13
2019-02-16T01:26:53.061Z,48.07
2019-02-16T01:29:21.211Z,48.97
2019-02-16T01:31:49.394Z,43.43
2019-02-16T01:34:17.554Z,41.47
2019-02-16T01:36:45.703Z,43.40
2019-02-16T01:39:13.894Z,42.00
2019-02-16T01:41:42.052Z,42.73
2019-02-16T01:44:10.277Z,42.67
2019-02-16T01:46:38.677Z,40.00
2019-02-16T01:49:06.815Z,41.53
2019-02-16T01:51:34.971Z,42.60
2019-02-16T01:54:03.436Z,43.07
2019-02-16T01:56:31.623Z,45.87
2019-02-16T01:58:59.768Z,42.40
2019-02-16T02:01:27.961Z,40.00
2019-02-16T02:03:56.112Z,42.23
2019-02-16T02:06:24.505Z,39.60
2019-02-16T02:08:52.699Z,39.33
2019-02-16T02:11:21.072Z,40.77
2019-02-16T02:13:49.227Z,42.70
2019-02-16T02:16:17.623Z,37.97
2019-02-16T02:18:46.034Z,37.90
2019-02-16T02:21:14.512Z,37.97
2019-02-16T02:23:42.712Z,39.23
2019-02-16T02:26:11.131Z,37.83
2019-02-16T02:28:39.274Z,33.00
2019-02-16T02:31:08.016Z,35.57
2019-02-16T02:33:36.166Z,36.63
2019-02-16T02:36:04.589Z,33.13
2019-02-16T02:38:32.855Z,35.10
2019-02-16T02:41:01.224Z,37.90
2019-02-16T02:43:29.376Z,38.43
2019-02-16T02:45:57.853Z,38.37
2019-02-16T02:48:26.128Z,43.03
2019-02-16T02:50:54.424Z,53.73
2019-02-16T02:53:30.822Z,44.60
2019-02-16T02:55:53.656Z,50.27
2019-02-16T02:58:21.968Z,38.10
2019-02-16T03:00:50.239Z,42.00
2019-02-16T03:03:18.387Z,40.07
2019-02-16T03:05:46.740Z,40.00
2019-02-16T03:08:14.956Z,40.70
2019-02-16T03:10:43.213Z,41.70
2019-02-16T03:13:11.353Z,38.70
2019-02-16T03:15:39.543Z,37.63
2019-02-16T03:18:07.691Z,38.57
2019-02-16T03:20:35.844Z,35.63
2019-02-16T03:23:15.080Z,35.53
2019-02-16T03:25:45.002Z,28.20
2019-02-16T03:28:17.653Z,36.37
2019-02-16T03:30:56.636Z,35.67
2019-02-16T03:33:26.609Z,33.47
2019-02-16T03:36:05.113Z,32.80
2019-02-16T03:38:47.073Z,30.53
2019-02-16T03:41:15.311Z,30.07
2019-02-16T03:43:43.454Z,32.53
2019-02-16T03:46:11.845Z,32.70
2019-02-16T03:48:40.001Z,31.23
2019-02-16T03:51:08.152Z,30.50
2019-02-16T03:53:36.327Z,30.20
2019-02-16T03:56:04.886Z,25.07
2019-02-16T03:58:34.045Z,27.73
2019-02-16T04:01:02.304Z,29.10
2019-02-16T04:03:30.528Z,28.73
2019-02-16T04:05:58.695Z,29.27
2019-02-16T04:08:26.925Z,31.07
2019-02-16T04:10:55.081Z,28.40
2019-02-16T04:13:23.234Z,27.83
2019-02-16T04:15:51.429Z,28.60
2019-02-16T04:18:19.575Z,31.20
2019-02-16T04:20:47.731Z,30.40
2019-02-16T04:23:16.159Z,30.40
2019-02-16T04:25:44.299Z,34.30
2019-02-16T04:28:12.447Z,35.00
2019-02-16T04:30:40.931Z,33.73
2019-02-16T04:33:09.105Z,29.00
2019-02-16T04:35:37.260Z,31.03
2019-02-16T04:38:05.755Z,32.23
2019-02-16T04:40:33.975Z,34.37
2019-02-16T04:43:02.324Z,37.30
2019-02-16T04:45:30.547Z,37.33
2019-02-16T04:47:58.808Z,37.77
2019-02-16T04:50:27.028Z,36.40
2019-02-16T04:52:55.227Z,37.50
2019-02-16T04:55:23.380Z,35.67
2019-02-16T04:57:51.565Z,34.80
2019-02-16T05:00:20.932Z,36.13
2019-02-16T05:02:49.085Z,36.63
2019-02-16T05:05:17.318Z,36.63
2019-02-16T05:07:45.507Z,34.63
2019-02-16T05:10:13.660Z,35.47
2019-02-16T05:12:41.813Z,38.03
2019-02-16T05:15:09.992Z,39.10
2019-02-16T05:17:38.144Z,34.03
2019-02-16T05:20:07.375Z,34.43
2019-02-16T05:22:44.374Z,33.60
2019-02-16T05:25:05.843Z,32.27
2019-02-16T05:27:34.237Z,31.17
2019-02-16T05:30:02.744Z,31.87
2019-02-16T05:32:30.892Z,31.73
2019-02-16T05:34:59.039Z,30.50
2019-02-16T05:37:27.537Z,31.00
2019-02-16T05:39:55.930Z,32.50
2019-02-16T05:42:24.321Z,32.00
2019-02-16T05:44:52.773Z,30.93
2019-02-16T05:47:21.139Z,35.03
2019-02-16T05:49:49.532Z,31.37
2019-02-16T05:52:18.199Z,29.13
2019-02-16T05:54:46.591Z,28.00
2019-02-16T05:57:15.002Z,28.53
2019-02-16T05:59:43.459Z,28.27
2019-02-16T06:02:12.865Z,28.43
2019-02-16T06:04:41.320Z,36.80
2019-02-16T06:07:09.761Z,28.27
2019-02-16T06:09:38.152Z,26.47
2019-02-16T06:12:06.543Z,27.03
2019-02-16T06:14:35.129Z,27.33
2019-02-16T06:17:03.714Z,26.93
2019-02-16T06:19:32.118Z,27.93
2019-02-16T06:22:00.379Z,25.53
2019-02-16T06:24:28.660Z,27.07
2019-02-16T06:26:56.819Z,28.87
2019-02-16T06:29:25.001Z,29.67
2019-02-16T06:31:53.156Z,30.80
2019-02-16T06:34:21.355Z,31.90
2019-02-16T06:36:49.530Z,31.57
2019-02-16T06:39:17.683Z,34.97
2019-02-16T06:41:46.277Z,47.23
2019-02-16T06:44:14.614Z,40.57
2019-02-16T06:46:42.764Z,40.13
2019-02-16T06:49:10.905Z,40.77
2019-02-16T06:51:39.096Z,34.97
2019-02-16T06:54:07.488Z,35.57
2019-02-16T06:56:40.263Z,36.70
2019-02-16T06:59:08.454Z,38.40
2019-02-16T07:01:36.844Z,39.67
2019-02-16T07:04:06.499Z,43.10
2019-02-16T07:06:34.878Z,43.13
2019-02-16T07:09:05.103Z,37.97
2019-02-16T07:11:33.216Z,46.80
2019-02-16T07:14:01.514Z,41.20
2019-02-16T07:16:47.482Z,36.73
2019-02-16T07:19:25.951Z,31.33
2019-02-16T07:21:55.841Z,32.60
2019-02-16T07:24:23.999Z,33.23
2019-02-16T07:26:52.204Z,33.10
2019-02-16T07:29:20.355Z,37.83
2019-02-16T07:31:48.714Z,39.80
2019-02-16T07:34:16.911Z,64.03
2019-02-16T07:36:45.093Z,40.00
2019-02-16T07:39:13.243Z,33.13
2019-02-16T07:41:41.441Z,32.97
2019-02-16T07:44:27.700Z,37.00
2019-02-16T07:46:57.544Z,40.50
2019-02-16T07:49:27.340Z,41.47
2019-02-16T07:51:57.257Z,40.27
2019-02-16T07:54:33.132Z,51.87
2019-02-16T07:57:03.007Z,47.13
2019-02-16T07:59:35.328Z,53.43
2019-02-16T08:02:05.180Z,65.37
2019-02-16T08:04:46.888Z,67.03
2019-02-16T08:07:20.632Z,58.53
2019-02-16T08:09:53.203Z,46.80
2019-02-16T08:12:23.269Z,42.57
2019-02-16T08:15:05.475Z,39.50
2019-02-16T08:17:41.395Z,41.30
2019-02-16T08:20:26.433Z,38.03
2019-02-16T08:23:05.488Z,41.93
2019-02-16T08:25:41.297Z,38.80
2019-02-16T08:28:20.682Z,38.73
2019-02-16T08:31:07.090Z,40.73
2019-02-16T08:33:37.129Z,40.63
2019-02-16T08:36:06.913Z,41.23
2019-02-16T08:38:36.955Z,39.43
2019-02-16T08:41:12.755Z,57.10
2019-02-16T08:43:58.702Z,66.20
2019-02-16T08:46:28.531Z,55.37
2019-02-16T08:48:58.431Z,58.60
2019-02-16T08:51:28.289Z,51.93
2019-02-16T08:54:13.032Z,57.27
2019-02-16T08:56:45.642Z,56.13
2019-02-16T08:59:18.495Z,51.70
2019-02-16T09:02:00.625Z,47.20
2019-02-16T09:04:30.415Z,42.23
2019-02-16T09:07:06.718Z,41.33
2019-02-16T09:09:40.492Z,37.50
2019-02-16T09:12:13.338Z,36.43
2019-02-16T09:14:52.061Z,25.50
2019-02-16T09:17:24.916Z,29.47
2019-02-16T09:20:11.650Z,25.40
2019-02-16T09:22:50.831Z,29.97
2019-02-16T09:25:20.644Z,26.87
2019-02-16T09:27:50.444Z,33.50
2019-02-16T09:30:20.327Z,32.43
2019-02-16T09:32:50.263Z,34.60
2019-02-16T09:35:23.387Z,34.03
2019-02-16T09:37:59.333Z,33.03
2019-02-16T09:40:35.438Z,33.97
2019-02-16T09:43:12.536Z,36.83
2019-02-16T09:45:42.443Z,32.33
2019-02-16T09:48:18.413Z,28.83
2019-02-16T09:51:03.874Z,29.37
2019-02-16T09:53:37.035Z,28.93
2019-02-16T09:56:23.524Z,27.47
2019-02-16T09:58:58.155Z,30.70
2019-02-16T10:01:44.593Z,30.10
2019-02-16T10:04:14.973Z,28.30
2019-02-16T10:06:57.202Z,29.00
2019-02-16T10:09:32.973Z,19.87
2019-02-16T10:12:03.960Z,19.47
2019-02-16T10:14:37.022Z,15.80
2019-02-16T10:17:09.864Z,19.07
2019-02-16T10:19:53.922Z,17.13
2019-02-16T10:22:26.860Z,17.43
2019-02-16T10:25:07.499Z,19.17
2019-02-16T10:27:40.339Z,18.40
2019-02-16T10:30:15.864Z,16.93
2019-02-16T10:33:04.168Z,16.33
2019-02-16T10:35:39.967Z,18.50
2019-02-16T10:38:26.475Z,17.10
2019-02-16T10:41:17.781Z,14.10
2019-02-16T10:43:57.168Z,12.27
2019-02-16T10:46:29.908Z,11.90
2019-02-16T10:49:07.029Z,10.90
2019-02-16T10:51:52.348Z,12.13
2019-02-16T10:54:27.980Z,14.17
2019-02-16T10:57:02.880Z,12.43
2019-02-16T10:59:39.021Z,12.43
2019-02-16T11:02:11.689Z,13.60
2019-02-16T11:04:49.934Z,12.77
2019-02-16T11:07:21.445Z,17.27
2019-02-16T11:09:53.831Z,6.53
2019-02-16T11:12:33.170Z,5.97
2019-02-16T11:15:03.025Z,4.50
2019-02-16T11:17:37.043Z,6.30
2019-02-16T11:20:25.618Z,3.97
2019-02-16T11:22:58.581Z,4.87
2019-02-16T11:25:36.216Z,4.63
2019-02-16T11:28:07.713Z,6.90
2019-02-16T11:30:40.404Z,2.70
2019-02-16T11:33:10.488Z,2.60
2019-02-16T11:35:43.616Z,2.93
2019-02-16T11:38:13.922Z,2.60
2019-02-16T11:40:49.978Z,2.60
2019-02-16T11:43:23.226Z,2.63
2019-02-16T11:46:09.646Z,3.00
2019-02-16T11:48:48.685Z,2.87
2019-02-16T11:51:26.613Z,3.20
2019-02-16T11:54:08.009Z,3.17
2019-02-16T11:56:38.482Z,2.50
2019-02-16T11:59:26.645Z,2.47
2019-02-16T12:01:56.428Z,4.50
2019-02-16T12:04:38.366Z,63.10
2019-02-16T12:07:11.297Z,8.70
2019-02-16T12:09:41.067Z,9.87
2019-02-16T12:12:17.347Z,5.67
2019-02-16T12:14:57.612Z,3.12
2019-02-16T12:17:30.248Z,2.60
2019-02-16T12:20:00.418Z,2.52
2019-02-16T12:22:30.313Z,3.42
2019-02-16T12:25:06.171Z,2.58
2019-02-16T12:27:43.936Z,2.90
2019-02-16T12:30:31.882Z,2.70
2019-02-16T12:33:01.710Z,3.10
2019-02-16T12:35:45.169Z,3.17
2019-02-16T12:38:21.645Z,2.95
2019-02-16T12:41:07.978Z,3.70
2019-02-16T12:43:41.308Z,3.50
2019-02-16T12:46:19.432Z,3.80
2019-02-16T12:49:00.498Z,4.10
2019-02-16T12:51:45.661Z,4.95
2019-02-16T12:54:21.304Z,4.75
2019-02-16T12:56:54.310Z,4.45
2019-02-16T12:59:26.931Z,4.45
2019-02-16T13:02:08.971Z,4.75
2019-02-16T13:04:45.949Z,4.95
2019-02-16T13:07:18.535Z,5.00
2019-02-16T13:10:04.649Z,5.65
2019-02-16T13:12:43.674Z,5.33
2019-02-16T13:15:16.417Z,5.67
2019-02-16T13:17:47.788Z,9.73
2019-02-16T13:20:18.850Z,7.47
2019-02-16T13:22:51.404Z,7.08
2019-02-16T13:25:30.311Z,6.70
2019-02-16T13:28:15.228Z,5.62
2019-02-16T13:30:47.842Z,6.70
2019-02-16T13:33:23.710Z,5.90
2019-02-16T13:35:53.548Z,6.53
2019-02-16T13:38:26.831Z,6.23
2019-02-16T13:41:06.011Z,9.60
2019-02-16T13:43:45.052Z,7.70
2019-02-16T13:46:18.120Z,7.87
2019-02-16T13:48:49.519Z,14.07
2019-02-16T13:51:25.024Z,13.00
2019-02-16T13:54:18.471Z,5.47
2019-02-16T13:56:57.928Z,6.13
2019-02-16T13:59:37.366Z,6.50
2019-02-16T14:02:08.259Z,7.50
2019-02-16T14:04:38.507Z,6.67
2019-02-16T14:07:08.292Z,7.23
2019-02-16T14:09:50.821Z,7.63
2019-02-16T14:12:37.646Z,7.53
2019-02-16T14:15:11.003Z,7.13
2019-02-16T14:17:40.940Z,6.23
2019-02-16T14:20:09.993Z,8.00
2019-02-16T14:22:38.189Z,7.30
2019-02-16T14:25:11.130Z,7.33
2019-02-16T14:27:39.050Z,9.90
2019-02-16T14:30:08.948Z,13.00
2019-02-16T14:32:38.748Z,13.13
2019-02-16T14:35:08.495Z,10.30
2019-02-16T14:37:50.757Z,16.70
2019-02-16T14:40:19.143Z,11.97
2019-02-16T14:42:47.376Z,12.80
2019-02-16T14:45:15.708Z,11.83
2019-02-16T14:47:45.507Z,14.87
2019-02-16T14:50:16.967Z,26.73
2019-02-16T14:52:45.314Z,34.93
2019-02-16T14:55:14.625Z,41.03
2019-02-16T14:57:42.708Z,45.07
2019-02-16T15:00:11.949Z,44.73
2019-02-16T15:02:40.265Z,46.23
2019-02-16T15:05:09.155Z,40.40
2019-02-16T15:07:39.536Z,77.43
2019-02-16T15:10:09.592Z,47.87
2019-02-16T15:12:37.849Z,44.87
2019-02-16T15:15:07.307Z,47.10
2019-02-16T15:17:35.679Z,43.03
2019-02-16T15:20:05.462Z,48.30
2019-02-16T15:22:34.943Z,108.03
2019-02-16T15:25:03.958Z,92.10
2019-02-16T15:27:32.455Z,97.93
2019-02-16T15:30:01.532Z,82.73
2019-02-16T15:32:29.822Z,82.03
2019-02-16T15:34:58.246Z,64.90
2019-02-16T15:37:28.098Z,56.87
2019-02-16T15:39:56.302Z,65.83
2019-02-16T15:42:24.669Z,82.47
2019-02-16T15:44:54.499Z,81.43
2019-02-16T15:47:22.784Z,91.03
2019-02-16T15:49:51.004Z,82.27
2019-02-16T15:52:19.218Z,73.63
2019-02-16T15:54:47.722Z,73.73
2019-02-16T15:57:15.886Z,66.67
2019-02-16T15:59:44.385Z,80.47
2019-02-16T16:02:14.038Z,65.07
2019-02-16T16:04:42.685Z,73.47
2019-02-16T16:07:12.509Z,68.33
2019-02-16T16:09:48.400Z,80.10
2019-02-16T16:12:25.002Z,77.93
2019-02-16T16:15:00.805Z,102.03
2019-02-16T16:17:36.834Z,150.27
2019-02-16T16:20:07.018Z,115.50
2019-02-16T16:22:38.872Z,106.67
2019-02-16T16:25:16.380Z,85.93
2019-02-16T16:27:46.318Z,77.80
2019-02-16T16:30:26.200Z,85.10
2019-02-16T16:33:01.752Z,65.93
2019-02-16T16:35:37.409Z,74.20
2019-02-16T16:38:07.488Z,68.13
2019-02-16T16:40:54.796Z,64.63
2019-02-16T16:43:31.271Z,67.67
2019-02-16T16:46:31.350Z,65.77
2019-02-16T16:49:04.293Z,77.37
2019-02-16T16:51:48.344Z,85.90
2019-02-16T16:54:37.502Z,86.87
2019-02-16T16:57:11.154Z,82.87
2019-02-16T16:59:53.404Z,75.70
2019-02-16T17:02:38.246Z,101.13
2019-02-16T17:05:17.406Z,72.30
2019-02-16T17:08:03.861Z,99.57
2019-02-16T17:10:52.092Z,79.10
2019-02-16T17:13:31.363Z,80.27
2019-02-16T17:16:16.541Z,79.30
2019-02-16T17:18:49.176Z,97.90
2019-02-16T17:21:18.989Z,110.90
2019-02-16T17:23:48.796Z,152.27
2019-02-16T17:26:21.637Z,205.10
2019-02-16T17:29:00.170Z,164.27
2019-02-16T17:31:42.308Z,105.20
2019-02-16T17:34:20.856Z,88.80
2019-02-16T17:36:59.975Z,95.40
2019-02-16T17:39:29.891Z,93.00
2019-02-16T17:41:59.687Z,89.73
2019-02-16T17:44:30.545Z,124.17
2019-02-16T17:47:00.341Z,122.83
2019-02-16T17:49:32.716Z,147.50
2019-02-16T17:52:20.651Z,153.77
2019-02-16T17:54:50.646Z,158.57
2019-02-16T17:57:36.708Z,138.63
2019-02-16T18:00:10.973Z,148.07
2019-02-16T18:02:41.629Z,158.33
2019-02-16T18:05:17.298Z,157.47
2019-02-16T18:07:53.330Z,115.17
2019-02-16T18:10:25.700Z,111.80
2019-02-16T18:12:58.024Z,125.07
2019-02-16T18:15:34.457Z,138.93
2019-02-16T18:18:19.003Z,127.90
2019-02-16T18:20:55.748Z,108.20
2019-02-16T18:23:33.984Z,113.73
2019-02-16T18:26:03.254Z,100.33
2019-02-16T18:28:34.423Z,94.67
2019-02-16T18:31:07.400Z,123.03
2019-02-16T18:33:37.197Z,128.33
2019-02-16T18:36:09.849Z,152.20
2019-02-16T18:38:42.912Z,143.53
2019-02-16T18:41:30.071Z,135.40
2019-02-16T18:44:05.859Z,139.67
2019-02-16T18:46:36.711Z,175.57
2019-02-16T18:49:06.567Z,116.50
2019-02-16T18:51:36.420Z,87.50
2019-02-16T18:54:14.994Z,96.10
2019-02-16T18:57:06.644Z,88.37
2019-02-16T18:59:33.093Z,90.60
2019-02-16T19:02:06.152Z,97.50
2019-02-16T19:04:39.207Z,91.63
2019-02-16T19:07:12.039Z,84.77
2019-02-16T19:09:45.043Z,89.07
2019-02-16T19:12:23.689Z,79.37
2019-02-16T19:15:09.908Z,73.80
2019-02-16T19:17:40.128Z,72.00
2019-02-16T19:20:16.083Z,69.50
2019-02-16T19:22:46.116Z,74.53
2019-02-16T19:25:19.027Z,57.93
2019-02-16T19:28:05.362Z,63.30
2019-02-16T19:30:35.642Z,72.80
2019-02-16T19:33:10.141Z,72.20
2019-02-16T19:35:43.038Z,70.97
2019-02-16T19:38:21.669Z,68.67
2019-02-16T19:41:00.679Z,63.13
2019-02-16T19:43:30.783Z,54.57
2019-02-16T19:46:09.801Z,45.10
2019-02-16T19:48:44.222Z,42.43
2019-02-16T19:51:30.543Z,43.87
2019-02-16T19:54:09.478Z,51.03
2019-02-16T19:56:45.832Z,59.77
2019-02-16T19:59:32.743Z,65.17
2019-02-16T20:02:02.650Z,66.80
2019-02-16T20:04:50.350Z,62.97
2019-02-16T20:07:32.597Z,63.70
2019-02-16T20:10:18.962Z,61.70
2019-02-16T20:13:05.219Z,59.07
2019-02-16T20:15:38.152Z,61.97
2019-02-16T20:18:08.214Z,64.93
2019-02-16T20:20:44.583Z,64.27
2019-02-16T20:23:18.098Z,66.47
2019-02-16T20:25:57.347Z,66.07
2019-02-16T20:28:36.021Z,65.50
2019-02-16T20:31:06.221Z,61.70
2019-02-16T20:33:41.852Z,65.07
2019-02-16T20:36:17.463Z,62.13
2019-02-16T20:38:59.214Z,62.13
2019-02-16T20:41:45.710Z,84.07
2019-02-16T20:44:18.448Z,78.87
2019-02-16T20:47:03.470Z,73.03
2019-02-16T20:49:35.007Z,77.10
2019-02-16T20:52:14.129Z,82.63
2019-02-16T20:54:53.174Z,77.13
2019-02-16T20:57:25.755Z,70.03
2019-02-16T21:00:07.848Z,72.60
2019-02-16T21:02:38.164Z,62.30
2019-02-16T21:05:07.970Z,55.73
2019-02-16T21:07:44.192Z,54.70
2019-02-16T21:10:20.242Z,58.33
2019-02-16T21:12:51.054Z,69.17
2019-02-16T21:15:21.338Z,61.43
2019-02-16T21:18:09.173Z,58.53
2019-02-16T21:20:41.532Z,57.77
2019-02-16T21:23:17.553Z,53.40
2019-02-16T21:25:59.510Z,53.97
2019-02-16T21:28:32.448Z,50.40
2019-02-16T21:31:11.475Z,47.07
2019-02-16T21:33:41.445Z,46.40
2019-02-16T21:36:18.312Z,47.60
2019-02-16T21:39:02.850Z,44.80
2019-02-16T21:41:32.048Z,51.07
2019-02-16T21:44:18.821Z,59.53
2019-02-16T21:46:48.964Z,83.87
2019-02-16T21:49:35.399Z,76.30
2019-02-16T21:52:06.638Z,51.17
2019-02-16T21:54:36.526Z,69.17
2019-02-16T21:57:15.474Z,53.00
2019-02-16T21:59:45.799Z,51.70
2019-02-16T22:02:27.748Z,58.00
2019-02-16T22:04:57.567Z,47.80
2019-02-16T22:07:33.708Z,46.17
2019-02-16T22:10:06.959Z,44.23
2019-02-16T22:12:52.106Z,62.03
2019-02-16T22:15:20.931Z,50.47
2019-02-16T22:17:49.392Z,40.27
2019-02-16T22:20:17.603Z,41.43
2019-02-16T22:22:46.033Z,39.00
2019-02-16T22:25:14.517Z,41.30
2019-02-16T22:27:42.715Z,45.10
2019-02-16T22:30:10.931Z,44.30
2019-02-16T22:32:39.338Z,36.77
2019-02-16T22:35:08.829Z,42.90
2019-02-16T22:37:37.223Z,38.53
2019-02-16T22:40:07.641Z,72.97
2019-02-16T22:42:35.935Z,27.20
2019-02-16T22:45:05.676Z,65.27
2019-02-16T22:47:33.822Z,31.63
2019-02-16T22:50:02.027Z,66.57
2019-02-16T22:52:30.452Z,22.87
2019-02-16T22:54:59.719Z,24.50
2019-02-16T22:57:28.145Z,28.47
2019-02-16T22:59:56.254Z,48.93
2019-02-16T23:02:24.687Z,81.20
2019-02-16T23:04:53.333Z,34.90
2019-02-16T23:07:21.735Z,24.17
2019-02-16T23:09:50.280Z,109.03
2019-02-16T23:12:18.807Z,177.87
2019-02-16T23:14:46.949Z,95.07
2019-02-16T23:17:15.471Z,74.63
2019-02-16T23:19:43.733Z,28.60
2019-02-16T23:22:11.889Z,23.70
2019-02-16T23:24:42.327Z,25.17
2019-02-16T23:27:10.592Z,28.53
2019-02-16T23:29:38.743Z,63.63
2019-02-16T23:32:07.308Z,21.37
2019-02-16T23:34:36.116Z,22.63
2019-02-16T23:37:04.271Z,22.17
2019-02-16T23:39:32.597Z,24.77
2019-02-16T23:42:00.809Z,21.87
2019-02-16T23:44:29.233Z,50.53
2019-02-16T23:46:57.599Z,60.77
2019-02-16T23:49:25.813Z,21.67
2019-02-16T23:51:54.269Z,22.07
2019-02-16T23:54:22.622Z,15.57
2019-02-16T23:56:52.130Z,16.07
2019-02-16T23:59:20.290Z,280.70
